Time;durP1;ratioP1;P1;durP2;ratioP2;P2;SDS_P1;SDS_P2;PMS_P1;PMS_P2;Temp;Humidity;BMP_temperature;BMP_pressure;BME280_temperature;BME280_humidity;BME280_pressure;Samples;Min_cycle;Max_cycle;Signal;HPM_P1;HPM_P2
2022/01/31 00:00:05;;;;;;;25.40;4.07;;;5.80;97.90;;;;;;5090789;28;20059;-81
2022/01/31 00:02:31;;;;;;;26.10;4.05;;;5.90;98.00;;;;;;5073699;28;20044;-81
2022/01/31 00:04:57;;;;;;;27.75;5.05;;;5.70;97.90;;;;;;5090082;28;20041;-81
2022/01/31 00:07:22;;;;;;;21.85;4.25;;;5.60;98.00;;;;;;5073161;28;20056;-80
2022/01/31 00:09:48;;;;;;;25.20;4.38;;;5.50;98.20;;;;;;5090666;28;20041;-80
2022/01/31 00:12:18;;;;;;;26.48;5.00;;;5.60;98.20;;;;;;5073648;28;20135;-81
2022/01/31 00:14:48;;;;;;;22.02;4.18;;;5.80;98.10;;;;;;5073555;28;20072;-81
2022/01/31 00:17:14;;;;;;;25.95;3.70;;;5.80;98.10;;;;;;5073848;28;20044;-81
2022/01/31 00:19:41;;;;;;;30.30;4.40;;;5.70;98.10;;;;;;5073496;28;20040;-81
2022/01/31 00:22:08;;;;;;;24.88;3.50;;;5.70;98.20;;;;;;5084768;28;20522;-81
2022/01/31 00:24:35;;;;;;;29.50;3.97;;;5.50;98.30;;;;;;5071539;28;20056;-80
2022/01/31 00:27:05;;;;;;;19.70;3.33;;;5.50;98.30;;;;;;5056814;28;20059;-81
2022/01/31 00:29:31;;;;;;;26.48;3.90;;;5.60;98.30;;;;;;5073307;28;20515;-81
2022/01/31 00:31:57;;;;;;;21.13;3.22;;;5.60;98.40;;;;;;5072971;28;20041;-81
2022/01/31 00:34:23;;;;;;;20.10;3.95;;;5.50;98.50;;;;;;5056594;28;20040;-80
2022/01/31 00:36:48;;;;;;;22.17;3.88;;;5.30;98.70;;;;;;5073497;28;20397;-81
2022/01/31 00:39:14;;;;;;;23.45;4.35;;;5.40;98.80;;;;;;5073292;28;20102;-80
2022/01/31 00:41:41;;;;;;;21.15;4.50;;;5.50;98.90;;;;;;5073136;28;20044;-81
2022/01/31 00:46:46;;;;;;;23.73;4.47;;;5.50;98.80;;;;;;5073121;28;20490;-81
2022/01/31 00:49:23;;;;;;;31.48;4.80;;;5.40;98.90;;;;;;5073466;28;20510;-81
2022/01/31 00:51:49;;;;;;;23.80;4.38;;;5.40;99.00;;;;;;5057974;28;20102;-81
2022/01/31 00:54:14;;;;;;;22.50;4.47;;;5.40;99.00;;;;;;5073292;28;20044;-81
2022/01/31 00:56:40;;;;;;;24.70;5.57;;;5.40;99.10;;;;;;5073130;28;20132;-81
2022/01/31 00:59:05;;;;;;;23.38;4.78;;;5.40;99.20;;;;;;5072581;28;20044;-81
2022/01/31 01:01:31;;;;;;;26.50;5.40;;;5.40;99.30;;;;;;5072571;28;20142;-81
2022/01/31 01:03:57;;;;;;;21.27;5.40;;;5.50;99.50;;;;;;5072607;28;20044;-80
2022/01/31 01:06:23;;;;;;;22.98;6.20;;;5.40;99.60;;;;;;5039715;28;20388;-80
2022/01/31 01:08:48;;;;;;;31.10;7.20;;;5.50;99.80;;;;;;5073168;28;20044;-80
2022/01/31 01:11:14;;;;;;;24.25;6.40;;;5.40;99.80;;;;;;5073089;28;20080;-81
2022/01/31 01:13:40;;;;;;;25.73;5.88;;;5.50;99.90;;;;;;5073020;28;20131;-81
2022/01/31 01:16:05;;;;;;;27.00;6.75;;;5.30;99.90;;;;;;5071802;28;20083;-81
2022/01/31 01:18:31;;;;;;;28.63;7.32;;;5.30;99.90;;;;;;5072744;28;20178;-81
2022/01/31 01:20:57;;;;;;;28.67;7.47;;;5.30;99.90;;;;;;5073213;28;20071;-81
2022/01/31 01:23:23;;;;;;;32.53;6.70;;;5.40;99.90;;;;;;5055753;28;20044;-81
2022/01/31 01:25:49;;;;;;;33.90;7.80;;;5.30;99.90;;;;;;5072007;28;20150;-80
2022/01/31 01:28:15;;;;;;;26.50;7.38;;;5.40;99.90;;;;;;5072311;28;20083;-81
2022/01/31 01:30:41;;;;;;;34.22;7.97;;;5.40;99.90;;;;;;5072901;28;20137;-81
2022/01/31 01:33:11;;;;;;;34.47;9.25;;;5.40;99.90;;;;;;5056076;28;20399;-81
2022/01/31 01:35:39;;;;;;;26.15;7.72;;;5.30;99.90;;;;;;5072881;28;20052;-81
2022/01/31 01:38:07;;;;;;;25.17;8.63;;;5.20;99.90;;;;;;5072292;28;20128;-81
2022/01/31 01:40:35;;;;;;;36.20;10.15;;;5.30;99.90;;;;;;5072449;28;20080;-81
2022/01/31 01:43:01;;;;;;;32.60;11.02;;;5.40;99.90;;;;;;5089442;28;20044;-81
2022/01/31 01:45:26;;;;;;;30.25;10.60;;;5.40;99.90;;;;;;5072553;28;20055;-81
2022/01/31 01:47:52;;;;;;;25.70;11.02;;;5.20;99.90;;;;;;5072233;28;20048;-81
2022/01/31 01:50:18;;;;;;;40.22;11.88;;;5.00;99.90;;;;;;5072306;28;20041;-81
2022/01/31 01:52:44;;;;;;;41.55;12.07;;;4.90;99.90;;;;;;5072435;28;20052;-82
2022/01/31 01:55:10;;;;;;;30.65;11.95;;;5.10;99.90;;;;;;5055953;28;20128;-80
2022/01/31 01:57:36;;;;;;;34.75;12.65;;;4.90;99.90;;;;;;5055554;28;20139;-81
2022/01/31 02:00:02;;;;;;;39.67;13.82;;;5.00;99.90;;;;;;5072388;28;20044;-80
2022/01/31 02:02:28;;;;;;;38.50;14.30;;;5.00;99.90;;;;;;5056124;28;20400;-80
2022/01/31 02:04:54;;;;;;;40.28;14.68;;;4.90;99.90;;;;;;5056515;28;20040;-80
2022/01/31 02:07:20;;;;;;;37.10;14.57;;;5.00;99.90;;;;;;5088799;28;20088;-80
2022/01/31 02:09:53;;;;;;;35.58;15.63;;;4.80;99.90;;;;;;5072397;28;20455;-80
2022/01/31 02:12:19;;;;;;;38.45;15.95;;;4.80;99.90;;;;;;5072233;28;20131;-80
2022/01/31 02:14:44;;;;;;;38.83;15.82;;;4.80;99.90;;;;;;5072109;28;20147;-80
2022/01/31 02:17:10;;;;;;;42.15;18.13;;;4.90;99.90;;;;;;5072664;28;20048;-80
2022/01/31 02:19:36;;;;;;;31.75;13.90;;;4.90;99.90;;;;;;5072434;28;20053;-80
2022/01/31 02:22:02;;;;;;;29.85;15.13;;;4.80;99.90;;;;;;5072492;28;20044;-80
2022/01/31 02:24:30;;;;;;;31.08;15.65;;;4.80;99.90;;;;;;5054989;28;20419;-80
2022/01/31 02:26:57;;;;;;;30.63;13.13;;;4.80;99.90;;;;;;5072880;28;20068;-80
2022/01/31 02:29:23;;;;;;;37.97;16.55;;;4.60;99.90;;;;;;5076075;28;20483;-80
2022/01/31 02:31:49;;;;;;;32.05;14.18;;;4.60;99.90;;;;;;5075919;28;20044;-80
2022/01/31 02:34:16;;;;;;;33.45;14.55;;;4.40;99.90;;;;;;5075800;28;20055;-79
2022/01/31 02:36:42;;;;;;;31.75;14.65;;;4.50;99.90;;;;;;5058568;28;20048;-79
2022/01/31 02:39:09;;;;;;;32.97;14.20;;;4.60;99.90;;;;;;5075649;28;20044;-79
2022/01/31 02:41:45;;;;;;;28.10;15.05;;;4.70;99.90;;;;;;5075795;28;20045;-79
2022/01/31 02:44:15;;;;;;;40.80;16.52;;;4.70;99.90;;;;;;5075375;28;20118;-80
2022/01/31 02:46:51;;;;;;;30.30;15.18;;;4.70;99.90;;;;;;5075433;28;20058;-79
2022/01/31 02:49:21;;;;;;;31.08;14.70;;;4.60;99.90;;;;;;5075543;28;20131;-79
2022/01/31 02:51:52;;;;;;;32.17;15.30;;;4.70;99.90;;;;;;5075289;28;20514;-79
2022/01/31 02:54:18;;;;;;;27.05;14.45;;;4.80;99.90;;;;;;5075377;28;20132;-79
2022/01/31 02:56:44;;;;;;;25.40;13.45;;;4.80;99.90;;;;;;5075244;28;20123;-79
2022/01/31 02:59:09;;;;;;;29.15;14.65;;;4.80;99.90;;;;;;5075127;28;20106;-79
2022/01/31 03:01:36;;;;;;;34.17;16.02;;;4.80;99.90;;;;;;5075121;28;20049;-79
2022/01/31 03:04:03;;;;;;;40.83;16.98;;;4.90;99.90;;;;;;5074835;28;20480;-79
2022/01/31 03:06:28;;;;;;;29.67;13.57;;;5.00;99.90;;;;;;5074676;28;20040;-79
2022/01/31 03:08:54;;;;;;;27.90;13.38;;;5.00;99.90;;;;;;5075154;28;20105;-79
2022/01/31 03:11:20;;;;;;;29.73;13.35;;;5.00;99.90;;;;;;5074941;28;20087;-79
2022/01/31 03:13:45;;;;;;;22.23;11.02;;;4.90;99.90;;;;;;5058170;28;20048;-80
2022/01/31 03:16:11;;;;;;;28.52;14.70;;;4.90;99.90;;;;;;5075009;28;20055;-79
2022/01/31 03:18:37;;;;;;;32.00;14.85;;;5.00;99.90;;;;;;5075072;28;20049;-80
2022/01/31 03:21:02;;;;;;;27.98;13.23;;;5.10;99.90;;;;;;5075124;28;20499;-79
2022/01/31 03:23:28;;;;;;;24.42;11.85;;;5.10;99.90;;;;;;5074871;28;20128;-79
2022/01/31 03:25:54;;;;;;;20.40;10.57;;;5.00;99.90;;;;;;5074896;28;20059;-80
2022/01/31 03:28:20;;;;;;;33.67;14.63;;;4.90;99.90;;;;;;5074911;28;20087;-80
2022/01/31 03:30:45;;;;;;;24.35;10.68;;;5.00;99.90;;;;;;5057940;28;20388;-80
2022/01/31 03:33:11;;;;;;;31.33;12.38;;;5.10;99.90;;;;;;5058462;28;20051;-80
2022/01/31 03:35:37;;;;;;;28.73;12.68;;;5.20;99.90;;;;;;5058125;28;20075;-80
2022/01/31 03:38:02;;;;;;;34.90;14.35;;;5.30;99.90;;;;;;5073959;28;20048;-80
2022/01/31 03:40:28;;;;;;;37.88;14.43;;;5.40;99.90;;;;;;5057009;28;20442;-80
2022/01/31 03:42:54;;;;;;;35.13;13.98;;;5.50;99.90;;;;;;5074334;28;20040;-80
2022/01/31 03:45:20;;;;;;;38.80;13.00;;;5.50;99.90;;;;;;5074220;28;20041;-80
2022/01/31 03:47:46;;;;;;;36.53;13.25;;;5.50;99.90;;;;;;5074232;28;20451;-80
2022/01/31 03:50:17;;;;;;;39.22;12.02;;;5.60;99.90;;;;;;5074333;28;20053;-80
2022/01/31 03:52:44;;;;;;;30.05;9.80;;;5.60;99.90;;;;;;5057651;28;20049;-80
2022/01/31 03:55:12;;;;;;;28.40;10.43;;;5.70;99.90;;;;;;5074036;28;20194;-80
2022/01/31 03:57:38;;;;;;;33.92;8.77;;;5.70;99.90;;;;;;5073940;28;20107;-80
2022/01/31 04:00:07;;;;;;;40.80;9.73;;;5.90;99.90;;;;;;5074425;28;20137;-80
2022/01/31 04:02:33;;;;;;;45.38;7.20;;;5.90;99.90;;;;;;5073690;28;20476;-80
2022/01/31 04:04:59;;;;;;;53.47;7.90;;;6.00;99.90;;;;;;5073812;28;20066;-80
2022/01/31 04:07:24;;;;;;;36.25;5.53;;;6.10;99.90;;;;;;5073462;28;20048;-80
2022/01/31 04:09:50;;;;;;;42.15;5.65;;;6.20;99.90;;;;;;5073622;28;20071;-80
2022/01/31 04:12:16;;;;;;;34.38;5.78;;;6.20;99.90;;;;;;5073537;28;20098;-79
2022/01/31 04:14:41;;;;;;;48.03;5.10;;;6.20;99.90;;;;;;5073440;28;20041;-80
2022/01/31 04:17:10;;;;;;;41.78;6.13;;;6.30;99.90;;;;;;5057509;28;20127;-80
2022/01/31 04:19:37;;;;;;;29.75;3.95;;;6.40;99.90;;;;;;5041355;28;20049;-80
2022/01/31 04:22:03;;;;;;;33.30;3.08;;;6.20;99.90;;;;;;5073576;28;20067;-80
2022/01/31 04:24:33;;;;;;;21.42;3.00;;;6.20;99.90;;;;;;5072918;28;20158;-80
2022/01/31 04:27:05;;;;;;;35.58;3.72;;;6.20;99.90;;;;;;5073738;28;20052;-80
2022/01/31 04:29:37;;;;;;;33.13;3.78;;;6.20;99.90;;;;;;5073487;28;20076;-80
2022/01/31 04:32:04;;;;;;;22.83;2.80;;;6.30;99.90;;;;;;5056913;28;20139;-80
2022/01/31 04:34:31;;;;;;;24.48;2.65;;;6.20;99.90;;;;;;5073413;28;20056;-80
2022/01/31 04:36:58;;;;;;;20.65;2.38;;;6.10;99.90;;;;;;5072808;28;20135;-81
2022/01/31 04:39:24;;;;;;;22.10;2.50;;;6.10;99.90;;;;;;5073234;28;20044;-80
2022/01/31 04:41:50;;;;;;;26.20;2.42;;;6.10;99.90;;;;;;5073084;28;20499;-80
2022/01/31 04:44:17;;;;;;;29.58;2.75;;;6.00;99.90;;;;;;5072923;28;20048;-80
2022/01/31 04:46:45;;;;;;;27.98;2.80;;;5.90;99.90;;;;;;5073126;28;20052;-80
2022/01/31 04:49:11;;;;;;;31.67;3.22;;;6.00;99.90;;;;;;5056425;28;20056;-80
2022/01/31 04:51:37;;;;;;;38.30;4.30;;;6.00;99.90;;;;;;5072738;28;20045;-80
2022/01/31 04:54:02;;;;;;;32.38;4.15;;;5.90;99.90;;;;;;5073299;28;20055;-80
2022/01/31 04:56:28;;;;;;;37.10;3.03;;;5.90;99.90;;;;;;5056165;28;20055;-80
2022/01/31 04:58:54;;;;;;;33.90;3.70;;;5.90;99.90;;;;;;5073266;28;20049;-80
2022/01/31 05:01:20;;;;;;;19.00;2.42;;;5.90;99.90;;;;;;5089739;28;20535;-80
2022/01/31 05:03:47;;;;;;;34.15;3.13;;;5.90;99.90;;;;;;5072333;28;20051;-80
2022/01/31 05:06:16;;;;;;;35.58;2.92;;;6.00;99.90;;;;;;5072085;28;20492;-80
2022/01/31 05:08:41;;;;;;;35.03;3.55;;;6.00;99.90;;;;;;5072818;28;20400;-80
2022/01/31 05:11:08;;;;;;;35.95;2.90;;;6.10;99.90;;;;;;5056154;28;20040;-80
2022/01/31 05:13:37;;;;;;;35.95;3.67;;;6.20;99.90;;;;;;5072672;28;20131;-80
2022/01/31 05:16:04;;;;;;;36.78;3.80;;;6.10;99.90;;;;;;5072790;28;20040;-81
2022/01/31 05:18:30;;;;;;;34.38;3.50;;;6.10;99.90;;;;;;5072387;28;20044;-80
2022/01/31 05:20:55;;;;;;;32.13;3.40;;;6.00;99.90;;;;;;5066979;28;20059;-80
2022/01/31 05:23:21;;;;;;;21.75;2.70;;;6.00;99.90;;;;;;5071511;28;20100;-80
2022/01/31 05:25:47;;;;;;;15.77;1.63;;;5.90;99.90;;;;;;5055895;28;20533;-80
2022/01/31 05:28:13;;;;;;;10.75;1.25;;;5.70;99.90;;;;;;5056040;28;20055;-80
2022/01/31 05:30:39;;;;;;;12.55;1.20;;;5.70;99.90;;;;;;5072549;28;20094;-80
2022/01/31 05:33:05;;;;;;;10.20;1.25;;;5.70;99.90;;;;;;5072645;28;20056;-80
2022/01/31 05:35:31;;;;;;;20.30;1.42;;;5.70;99.90;;;;;;5056035;28;20136;-80
2022/01/31 05:37:57;;;;;;;15.00;1.33;;;5.80;99.90;;;;;;5105843;28;20048;-80
2022/01/31 05:40:22;;;;;;;11.38;1.38;;;5.80;99.90;;;;;;5055842;28;20052;-80
2022/01/31 05:42:48;;;;;;;8.68;0.80;;;5.70;99.90;;;;;;5055568;28;20096;-80
2022/01/31 05:45:14;;;;;;;12.63;1.08;;;5.80;99.90;;;;;;5055786;28;20045;-80
2022/01/31 05:47:40;;;;;;;14.15;1.10;;;5.80;99.90;;;;;;5072436;28;20080;-80
2022/01/31 05:50:07;;;;;;;9.27;1.10;;;5.80;99.90;;;;;;5072405;28;20048;-80
2022/01/31 05:52:33;;;;;;;18.70;0.98;;;5.70;99.90;;;;;;5072283;28;20060;-80
2022/01/31 05:54:59;;;;;;;20.73;1.65;;;5.70;99.90;;;;;;5072539;28;20052;-80
2022/01/31 05:57:25;;;;;;;11.70;1.35;;;5.60;99.90;;;;;;5072270;28;20055;-80
2022/01/31 05:59:51;;;;;;;20.52;1.77;;;5.50;99.90;;;;;;5072675;28;20044;-80
2022/01/31 06:02:17;;;;;;;13.75;1.20;;;5.70;99.90;;;;;;5073276;28;20047;-80
2022/01/31 06:04:43;;;;;;;19.67;1.63;;;5.80;99.90;;;;;;5075928;28;20118;-80
2022/01/31 06:07:09;;;;;;;13.95;1.30;;;5.70;99.90;;;;;;5075846;28;20480;-80
2022/01/31 06:09:36;;;;;;;15.80;1.25;;;5.70;99.90;;;;;;5059448;28;20056;-80
2022/01/31 06:12:03;;;;;;;23.65;2.25;;;5.70;99.90;;;;;;5076436;28;20110;-80
2022/01/31 06:14:31;;;;;;;10.45;1.40;;;5.60;99.90;;;;;;5059658;28;20091;-80
2022/01/31 06:16:57;;;;;;;19.65;1.58;;;5.80;99.90;;;;;;5075902;28;20475;-80
2022/01/31 06:19:23;;;;;;;17.88;1.13;;;5.70;99.90;;;;;;5075889;28;20102;-80
2022/01/31 06:21:48;;;;;;;14.25;1.45;;;5.80;99.90;;;;;;5059386;28;20041;-80
2022/01/31 06:24:15;;;;;;;16.38;1.50;;;5.80;99.90;;;;;;5058964;28;20045;-80
2022/01/31 06:26:42;;;;;;;26.35;2.70;;;5.80;99.90;;;;;;5059046;28;20051;-80
2022/01/31 06:29:07;;;;;;;21.05;1.60;;;5.80;99.90;;;;;;5059031;28;20135;-80
2022/01/31 06:31:33;;;;;;;21.38;1.88;;;5.90;99.90;;;;;;5075688;28;20132;-80
2022/01/31 06:34:00;;;;;;;13.63;2.05;;;5.80;99.90;;;;;;5075578;28;20056;-80
2022/01/31 06:36:26;;;;;;;17.23;1.45;;;5.90;99.90;;;;;;5075241;28;20040;-80
2022/01/31 06:38:53;;;;;;;15.98;1.40;;;5.90;99.90;;;;;;5075559;28;20097;-80
2022/01/31 06:41:19;;;;;;;21.02;2.00;;;5.90;99.90;;;;;;5059098;28;20052;-80
2022/01/31 06:43:46;;;;;;;23.67;3.17;;;5.90;99.90;;;;;;5092133;28;20041;-80
2022/01/31 06:46:13;;;;;;;18.10;1.67;;;6.10;99.90;;;;;;5058691;28;20127;-80
2022/01/31 06:48:40;;;;;;;25.73;1.80;;;6.00;99.90;;;;;;5063778;28;20047;-80
2022/01/31 06:51:06;;;;;;;21.52;2.72;;;5.90;99.90;;;;;;5082148;28;20048;-80
2022/01/31 06:53:32;;;;;;;23.83;2.28;;;5.90;99.90;;;;;;5075253;28;20123;-80
2022/01/31 06:55:58;;;;;;;15.23;1.23;;;6.00;99.90;;;;;;5075213;28;20048;-80
2022/01/31 06:58:24;;;;;;;21.63;2.03;;;6.00;99.90;;;;;;5075655;28;20052;-80
2022/01/31 07:00:51;;;;;;;16.73;1.73;;;6.10;99.90;;;;;;5058421;28;20558;-80
2022/01/31 07:03:16;;;;;;;25.42;2.03;;;6.20;99.90;;;;;;5074937;28;20377;-80
2022/01/31 07:05:44;;;;;;;16.23;2.17;;;6.10;99.90;;;;;;5058497;28;20102;-80
2022/01/31 07:08:11;;;;;;;15.27;0.98;;;6.10;99.90;;;;;;5074569;28;20044;-80
2022/01/31 07:10:37;;;;;;;15.00;1.40;;;6.20;99.90;;;;;;5058563;28;20113;-80
2022/01/31 07:13:12;;;;;;;13.52;1.20;;;6.10;99.90;;;;;;5074395;28;20090;-80
2022/01/31 07:15:38;;;;;;;16.33;1.63;;;6.20;99.90;;;;;;5074608;28;20055;-80
2022/01/31 07:18:04;;;;;;;17.08;1.73;;;6.20;99.90;;;;;;5074717;28;20047;-80
2022/01/31 07:20:39;;;;;;;16.25;1.33;;;6.20;99.90;;;;;;5091821;28;20045;-80
2022/01/31 07:23:10;;;;;;;14.35;1.65;;;6.20;99.90;;;;;;5074791;28;20040;-80
2022/01/31 07:25:36;;;;;;;19.95;1.50;;;6.30;99.90;;;;;;5093894;28;20104;-80
2022/01/31 07:28:09;;;;;;;22.52;2.08;;;6.30;99.90;;;;;;5077028;28;20043;-80
2022/01/31 07:30:36;;;;;;;19.58;1.77;;;6.30;99.90;;;;;;5093743;28;20376;-80
2022/01/31 07:33:02;;;;;;;18.27;2.00;;;6.40;99.90;;;;;;5094321;28;20518;-75
2022/01/31 07:35:28;;;;;;;20.10;2.53;;;6.40;99.90;;;;;;5094660;28;20052;-75
2022/01/31 07:37:54;;;;;;;15.82;1.42;;;6.60;99.90;;;;;;5095033;28;20089;-76
2022/01/31 07:40:19;;;;;;;17.58;1.88;;;6.50;99.90;;;;;;5095825;28;20047;-77
2022/01/31 07:42:45;;;;;;;14.48;1.83;;;6.40;99.90;;;;;;5094443;28;20040;-75
2022/01/31 07:45:11;;;;;;;12.63;1.33;;;6.40;99.90;;;;;;5094530;28;20047;-75
2022/01/31 07:47:37;;;;;;;19.00;1.35;;;6.30;99.90;;;;;;5094766;28;20430;-75
2022/01/31 07:50:04;;;;;;;16.95;1.42;;;6.30;99.90;;;;;;5094495;28;20105;-76
2022/01/31 07:52:31;;;;;;;10.25;1.35;;;6.30;99.90;;;;;;5095455;28;20044;-75
2022/01/31 07:54:57;;;;;;;16.85;2.05;;;6.30;99.90;;;;;;5094439;28;20080;-73
2022/01/31 07:57:24;;;;;;;13.35;1.20;;;6.30;99.90;;;;;;5098040;28;20407;-76
2022/01/31 07:59:52;;;;;;;11.98;1.27;;;6.40;99.90;;;;;;5103342;28;20056;-76
2022/01/31 08:02:18;;;;;;;13.85;1.30;;;6.40;99.90;;;;;;5097281;28;20059;-73
2022/01/31 08:04:43;;;;;;;17.58;1.10;;;6.40;99.90;;;;;;5093890;28;20040;-74
2022/01/31 08:07:09;;;;;;;10.07;1.20;;;6.50;99.90;;;;;;5093733;28;20055;-74
2022/01/31 08:09:35;;;;;;;12.15;0.90;;;6.50;99.90;;;;;;5095197;28;20082;-74
2022/01/31 08:12:00;;;;;;;14.40;1.48;;;6.60;99.90;;;;;;5094184;28;20055;-73
2022/01/31 08:14:27;;;;;;;14.90;1.42;;;6.60;99.90;;;;;;5094024;28;20056;-73
2022/01/31 08:16:52;;;;;;;8.05;0.80;;;6.80;99.90;;;;;;5093793;28;20043;-78
2022/01/31 08:19:18;;;;;;;10.40;1.00;;;6.90;99.90;;;;;;5077050;28;20044;-74
2022/01/31 08:21:44;;;;;;;19.08;1.35;;;7.00;99.90;;;;;;5094718;28;20097;-74
2022/01/31 08:24:10;;;;;;;18.45;1.52;;;7.10;99.90;;;;;;5094764;28;20048;-74
2022/01/31 08:26:35;;;;;;;12.15;1.00;;;7.20;99.90;;;;;;5096179;28;20505;-74
2022/01/31 08:29:16;;;;;;;19.25;1.50;;;7.10;99.90;;;;;;5093609;28;20048;-74
2022/01/31 08:31:42;;;;;;;14.13;1.58;;;7.10;99.90;;;;;;5093805;28;20052;-74
2022/01/31 08:36:40;;;;;;;11.07;1.48;;;7.30;99.90;;;;;;5077036;28;20536;-74
2022/01/31 08:39:18;;;;;;;15.75;1.48;;;7.30;99.90;;;;;;5093389;28;20135;-74
2022/01/31 08:41:48;;;;;;;11.25;1.67;;;7.30;99.90;;;;;;5076699;28;20044;-74
2022/01/31 08:44:17;;;;;;;12.52;1.23;;;7.30;99.90;;;;;;5093340;28;20120;-74
2022/01/31 08:46:45;;;;;;;16.13;1.20;;;7.40;99.90;;;;;;5094410;28;20514;-71
2022/01/31 08:49:13;;;;;;;20.45;1.73;;;7.50;99.90;;;;;;5093291;28;20105;-72
2022/01/31 08:51:40;;;;;;;20.50;1.58;;;7.40;99.90;;;;;;5095046;28;20063;-72
2022/01/31 08:54:07;;;;;;;18.95;2.13;;;7.40;99.90;;;;;;5094929;28;20059;-74
2022/01/31 08:56:40;;;;;;;15.02;1.52;;;7.40;99.90;;;;;;5094692;28;20051;-74
2022/01/31 08:59:07;;;;;;;17.48;1.73;;;7.40;99.90;;;;;;5093123;28;20052;-72
2022/01/31 09:01:33;;;;;;;17.73;1.55;;;7.40;99.90;;;;;;5093130;28;20181;-72
2022/01/31 09:04:04;;;;;;;16.42;2.17;;;7.30;99.90;;;;;;5094038;28;20127;-73
2022/01/31 09:06:33;;;;;;;17.40;2.25;;;7.30;99.90;;;;;;5076409;28;20048;-75
2022/01/31 09:09:00;;;;;;;16.77;1.50;;;7.10;99.90;;;;;;5092998;28;20157;-82
2022/01/31 09:11:28;;;;;;;11.05;1.63;;;7.10;99.90;;;;;;5060262;28;20056;-81
2022/01/31 09:13:54;;;;;;;9.30;1.00;;;6.90;99.90;;;;;;5093630;28;20040;-81
2022/01/31 09:16:20;;;;;;;13.60;1.90;;;6.90;99.90;;;;;;5076122;28;20382;-81
2022/01/31 09:18:46;;;;;;;10.43;1.27;;;6.80;99.90;;;;;;5092940;28;20056;-81
2022/01/31 09:21:11;;;;;;;16.45;1.30;;;6.90;99.90;;;;;;5076004;28;20135;-81
2022/01/31 09:23:38;;;;;;;10.93;0.85;;;6.90;99.90;;;;;;5092334;28;20127;-81
2022/01/31 09:26:04;;;;;;;13.52;1.08;;;7.00;99.90;;;;;;5058894;28;20052;-81
2022/01/31 09:28:30;;;;;;;12.10;1.33;;;7.10;99.90;;;;;;5092459;28;20130;-81
2022/01/31 09:30:56;;;;;;;12.57;0.98;;;6.90;99.90;;;;;;5092994;28;20047;-85
2022/01/31 09:33:22;;;;;;;9.57;0.63;;;6.80;99.90;;;;;;5093211;28;20047;-79
2022/01/31 09:35:48;;;;;;;10.55;1.10;;;6.70;99.90;;;;;;5076218;28;20040;-79
2022/01/31 09:38:17;;;;;;;12.10;1.08;;;6.80;99.90;;;;;;5095045;28;20096;-81
2022/01/31 09:40:44;;;;;;;14.90;1.63;;;6.90;99.90;;;;;;5080142;28;20048;-85
2022/01/31 09:51:05;;;;;;;12.85;1.13;;;6.90;99.90;;;;;;5097211;28;20139;-86
2022/01/31 09:53:32;;;;;;;14.98;0.95;;;6.90;99.90;;;;;;5096664;28;20047;-86
2022/01/31 09:55:58;;;;;;;14.55;1.20;;;6.90;99.90;;;;;;5079872;28;20386;-86
2022/01/31 09:58:29;;;;;;;13.60;1.35;;;6.90;99.90;;;;;;5079801;28;20050;-86
2022/01/31 10:01:08;;;;;;;12.35;0.90;;;6.90;99.90;;;;;;5096801;28;20612;-87
2022/01/31 10:03:48;;;;;;;14.32;1.35;;;7.10;99.90;;;;;;5096344;28;20048;-85
2022/01/31 10:06:25;;;;;;;9.38;0.82;;;7.20;99.90;;;;;;5096456;28;20040;-81
2022/01/31 10:09:13;;;;;;;14.65;1.23;;;7.20;99.90;;;;;;5096784;28;20036;-82
2022/01/31 10:11:48;;;;;;;13.23;1.20;;;7.20;99.90;;;;;;5079742;28;20044;-80
2022/01/31 10:17:45;;;;;;;16.50;1.63;;;7.30;99.90;;;;;;5057702;28;20178;-83
2022/01/31 10:20:32;;;;;;;10.15;1.65;;;7.30;99.90;;;;;;5096092;28;20064;-82
2022/01/31 10:23:12;;;;;;;18.23;1.33;;;7.50;99.90;;;;;;5096139;28;20123;-83
2022/01/31 10:25:39;;;;;;;16.65;1.50;;;7.70;99.90;;;;;;5095426;28;20048;-83
2022/01/31 10:28:18;;;;;;;9.32;1.98;;;7.70;99.90;;;;;;5079129;28;20059;-83
2022/01/31 10:30:46;;;;;;;12.82;2.13;;;7.80;99.90;;;;;;5095938;28;20051;-83
2022/01/31 10:33:14;;;;;;;13.60;1.65;;;7.80;99.90;;;;;;5096050;28;20135;-82
2022/01/31 10:35:41;;;;;;;21.10;1.92;;;7.80;99.90;;;;;;5078931;28;20075;-83
2022/01/31 10:38:16;;;;;;;22.10;2.03;;;7.80;99.90;;;;;;5062224;28;20098;-82
2022/01/31 10:44:17;;;;;;;15.77;1.65;;;8.00;99.90;;;;;;5095622;28;20059;-76
2022/01/31 10:50:43;;;;;;;19.38;1.55;;;8.00;99.90;;;;;;5095536;28;20048;-79
2022/01/31 10:52:21;;;;;;;17.33;1.85;;;8.30;99.90;;;;;;5095549;28;20089;-77
2022/01/31 10:54:51;;;;;;;18.90;2.20;;;8.20;99.90;;;;;;5095460;28;20051;-77
2022/01/31 10:57:22;;;;;;;16.42;1.75;;;8.30;99.90;;;;;;5095298;28;20044;-78
2022/01/31 10:59:50;;;;;;;14.25;2.08;;;8.30;99.90;;;;;;5095192;28;20085;-86
2022/01/31 11:02:25;;;;;;;16.38;1.67;;;8.20;99.90;;;;;;5095114;28;20502;-86
2022/01/31 11:04:52;;;;;;;15.70;1.30;;;8.10;99.90;;;;;;5095890;28;20456;-84
2022/01/31 11:07:21;;;;;;;16.88;1.90;;;8.00;99.90;;;;;;5077972;28;20052;-85
2022/01/31 11:09:51;;;;;;;16.25;2.17;;;8.00;99.90;;;;;;5095249;28;20048;-86
2022/01/31 11:12:19;;;;;;;18.13;1.70;;;8.20;99.90;;;;;;5062211;28;20062;-86
2022/01/31 11:14:46;;;;;;;20.65;2.40;;;8.60;99.90;;;;;;5095210;28;20055;-83
2022/01/31 11:17:16;;;;;;;17.65;1.83;;;8.70;99.60;;;;;;5066428;28;20131;-85
2022/01/31 11:19:49;;;;;;;13.13;1.88;;;8.40;99.90;;;;;;5095283;28;20058;-84
2022/01/31 11:22:17;;;;;;;14.25;1.40;;;8.30;99.90;;;;;;5097702;28;20036;-86
2022/01/31 11:24:53;;;;;;;14.05;1.60;;;8.20;99.80;;;;;;5077945;28;20047;-87
2022/01/31 11:27:23;;;;;;;18.23;2.47;;;8.30;99.90;;;;;;5078380;28;20142;-86
2022/01/31 11:29:55;;;;;;;13.43;1.63;;;8.40;99.90;;;;;;5094835;28;20055;-72
2022/01/31 11:32:24;;;;;;;17.90;1.92;;;8.50;99.90;;;;;;5094415;28;20044;-71
2022/01/31 11:34:51;;;;;;;16.15;1.67;;;8.70;99.50;;;;;;5061441;28;20048;-70
2022/01/31 11:37:18;;;;;;;13.77;1.50;;;8.70;99.60;;;;;;5094371;28;20059;-71
2022/01/31 11:39:47;;;;;;;17.30;1.90;;;8.70;99.40;;;;;;5095957;28;20096;-72
2022/01/31 11:42:13;;;;;;;19.42;2.10;;;8.70;99.20;;;;;;5094630;28;20142;-85
2022/01/31 11:45:04;;;;;;;18.75;2.55;;;8.70;99.20;;;;;;5077625;28;20399;-72
2022/01/31 11:47:31;;;;;;;19.98;2.17;;;8.50;99.30;;;;;;5095522;28;20051;-74
2022/01/31 11:50:00;;;;;;;27.40;2.47;;;8.50;99.70;;;;;;5094477;28;20066;-74
2022/01/31 11:52:30;;;;;;;15.88;2.00;;;8.50;99.60;;;;;;5094375;28;20104;-75
2022/01/31 11:55:02;;;;;;;19.08;1.95;;;8.50;99.50;;;;;;5094589;28;20060;-72
2022/01/31 11:57:31;;;;;;;20.45;2.08;;;8.40;99.50;;;;;;5094521;28;20048;-71
2022/01/31 11:59:59;;;;;;;18.55;2.33;;;8.30;99.60;;;;;;5082187;28;21334;-73
2022/01/31 12:02:29;;;;;;;21.35;2.92;;;8.40;99.90;;;;;;5063786;28;20112;-74
2022/01/31 12:05:00;;;;;;;21.65;2.38;;;8.60;99.90;;;;;;5062870;28;20052;-75
2022/01/31 12:07:40;;;;;;;14.93;1.70;;;8.60;99.90;;;;;;5062735;28;20739;-77
2022/01/31 12:10:09;;;;;;;19.55;1.90;;;8.80;99.80;;;;;;5087055;27;20055;-73
2022/01/31 12:18:30;;;;;;;24.90;3.33;;;8.70;99.70;;;;;;5075985;28;20479;-70
2022/01/31 12:23:52;;;;;;;19.63;2.30;;;8.60;99.90;;;;;;5077441;28;20088;-71
2022/01/31 12:26:33;;;;;;;20.63;2.92;;;8.80;99.90;;;;;;5079084;28;20099;-71
2022/01/31 12:29:13;;;;;;;20.35;1.75;;;8.90;99.60;;;;;;5074336;28;20052;-71
2022/01/31 12:31:48;;;;;;;25.95;2.40;;;8.80;99.70;;;;;;5107363;28;20088;-71
2022/01/31 12:34:17;;;;;;;27.65;2.53;;;8.80;99.80;;;;;;5073191;28;20551;-71
2022/01/31 12:36:42;;;;;;;18.77;2.00;;;8.70;99.70;;;;;;5089362;28;20052;-70
2022/01/31 12:39:41;;;;;;;21.05;3.10;;;8.80;99.70;;;;;;5107207;28;20399;-71
2022/01/31 12:42:53;;;;;;;25.55;3.25;;;9.00;99.50;;;;;;5107298;27;20048;-71
2022/01/31 12:45:43;;;;;;;23.40;2.42;;;9.20;99.50;;;;;;5067509;28;20411;-71
2022/01/31 12:48:14;;;;;;;21.27;2.70;;;9.30;99.30;;;;;;5069806;28;20064;-70
2022/01/31 12:50:40;;;;;;;25.08;3.05;;;9.40;99.40;;;;;;5082475;28;20538;-73
2022/01/31 12:56:03;;;;;;;26.65;2.78;;;9.20;99.50;;;;;;5093118;28;20036;-71
2022/01/31 12:58:37;;;;;;;26.60;2.42;;;9.10;99.70;;;;;;5079754;28;20054;-71
2022/01/31 13:01:20;;;;;;;20.55;2.72;;;9.10;99.90;;;;;;5073112;28;20057;-71
2022/01/31 13:03:50;;;;;;;16.08;2.17;;;9.10;99.80;;;;;;5071959;28;20040;-72
2022/01/31 13:06:48;;;;;;;19.35;2.20;;;9.20;99.90;;;;;;5106243;28;20059;-71
2022/01/31 13:09:15;;;;;;;19.75;2.50;;;9.20;99.70;;;;;;5089437;28;20056;-71
2022/01/31 13:11:44;;;;;;;24.60;2.72;;;9.30;99.90;;;;;;5072755;28;20124;-71
2022/01/31 13:14:13;;;;;;;19.98;2.15;;;9.10;99.90;;;;;;5073119;28;20064;-71
2022/01/31 13:16:42;;;;;;;23.27;2.05;;;9.10;99.90;;;;;;5072902;28;20388;-71
2022/01/31 13:19:13;;;;;;;21.77;2.17;;;9.00;99.90;;;;;;5072674;28;20495;-71
2022/01/31 13:21:39;;;;;;;26.67;2.78;;;9.00;99.90;;;;;;5072557;28;20044;-71
2022/01/31 13:24:05;;;;;;;23.27;2.88;;;8.90;99.90;;;;;;5072450;28;20053;-71